createdAt,value
2023-01-24T00:02:03.967Z,1.70
2023-01-24T00:07:05.865Z,1.70
2023-01-24T00:12:07.946Z,1.70
2023-01-24T00:17:09.874Z,1.70
2023-01-24T00:22:11.838Z,1.70
2023-01-24T00:27:13.832Z,1.70
2023-01-24T00:32:15.812Z,1.70
2023-01-24T00:37:17.730Z,1.70
2023-01-24T00:42:19.929Z,1.60
2023-01-24T00:47:21.942Z,1.70
2023-01-24T00:52:23.837Z,1.70
2023-01-24T00:57:26.105Z,1.70
2023-01-24T01:02:28.184Z,1.70
2023-01-24T01:07:32.469Z,1.70
2023-01-24T01:12:34.481Z,1.70
2023-01-24T01:17:36.373Z,1.70
2023-01-24T01:22:38.353Z,1.70
2023-01-24T01:27:40.276Z,1.70
2023-01-24T01:32:42.179Z,1.70
2023-01-24T01:37:44.123Z,1.70
2023-01-24T01:42:51.668Z,1.70
2023-01-24T01:47:53.768Z,1.70
2023-01-24T01:52:55.887Z,1.70
2023-01-24T01:57:58.868Z,1.70
2023-01-24T02:03:34.382Z,1.70
2023-01-24T02:08:36.363Z,1.70
2023-01-24T02:13:44.496Z,1.60
2023-01-24T02:18:46.557Z,1.70
2023-01-24T02:23:57.926Z,1.70
2023-01-24T02:29:07.886Z,1.70
2023-01-24T02:34:09.924Z,1.60
2023-01-24T02:39:17.732Z,1.60
2023-01-24T02:45:13.700Z,1.60
2023-01-24T02:50:17.395Z,1.60
2023-01-24T02:55:21.446Z,1.60
2023-01-24T03:00:24.467Z,1.50
2023-01-24T03:05:26.712Z,1.60
2023-01-24T03:10:28.726Z,1.60
2023-01-24T03:15:49.342Z,1.50
2023-01-24T03:21:09.759Z,1.60
2023-01-24T03:26:31.524Z,1.60
2023-01-24T03:31:53.167Z,1.50
2023-01-24T03:36:59.203Z,1.60
2023-01-24T03:42:02.234Z,1.50
2023-01-24T03:47:04.445Z,1.60
2023-01-24T03:52:24.800Z,1.60
2023-01-24T03:57:27.808Z,1.60
2023-01-24T04:02:32.556Z,1.60
2023-01-24T04:07:35.071Z,1.60
2023-01-24T04:12:41.383Z,1.60
2023-01-24T04:17:43.592Z,1.60
2023-01-24T04:22:46.810Z,1.60
2023-01-24T04:27:49.530Z,1.60
2023-01-24T04:32:57.795Z,1.60
2023-01-24T04:38:02.678Z,1.60
2023-01-24T04:43:13.975Z,1.60
2023-01-24T04:48:20.302Z,1.60
2023-01-24T04:53:22.939Z,1.60
2023-01-24T04:58:27.425Z,1.60
2023-01-24T05:03:29.759Z,1.60
2023-01-24T05:08:32.032Z,1.60
2023-01-24T05:13:34.696Z,1.50
2023-01-24T05:18:36.808Z,1.50
2023-01-24T05:23:39.165Z,1.50
2023-01-24T05:28:41.639Z,1.50
2023-01-24T05:33:44.240Z,1.50
2023-01-24T05:38:46.825Z,1.50
2023-01-24T05:43:50.559Z,1.50
2023-01-24T05:48:56.379Z,1.50
2023-01-24T05:54:00.867Z,1.50
2023-01-24T05:59:21.432Z,1.50
2023-01-24T06:04:23.733Z,1.50
2023-01-24T06:09:25.673Z,1.50
2023-01-24T06:14:27.674Z,1.40
2023-01-24T06:19:30.235Z,1.50
2023-01-24T06:24:32.608Z,1.40
2023-01-24T06:29:49.997Z,1.40
2023-01-24T06:35:29.645Z,1.40
2023-01-24T06:40:32.029Z,1.40
2023-01-24T06:45:34.169Z,1.40
2023-01-24T06:50:36.315Z,1.40
2023-01-24T06:55:38.267Z,1.40
2023-01-24T07:00:40.258Z,1.50
2023-01-24T07:05:42.227Z,1.50
2023-01-24T07:10:44.379Z,1.50
2023-01-24T07:15:46.306Z,1.50
2023-01-24T07:20:48.616Z,1.50
2023-01-24T07:25:52.541Z,1.50
2023-01-24T07:30:54.704Z,1.50
2023-01-24T07:35:56.817Z,1.50
2023-01-24T07:40:58.691Z,1.50
2023-01-24T07:46:00.630Z,1.50
2023-01-24T07:51:03.903Z,1.60
2023-01-24T07:56:10.463Z,1.60
2023-01-24T08:01:19.207Z,1.50
2023-01-24T08:06:21.561Z,1.60
2023-01-24T08:11:23.478Z,1.60
2023-01-24T08:16:27.026Z,1.60
2023-01-24T08:21:29.081Z,1.60
2023-01-24T08:26:30.990Z,1.60
2023-01-24T08:31:32.943Z,1.60
2023-01-24T08:36:34.943Z,1.60
2023-01-24T08:41:37.125Z,1.60
2023-01-24T08:46:39.022Z,1.70
2023-01-24T08:51:41.426Z,1.70
2023-01-24T08:56:43.367Z,1.70
2023-01-24T09:01:45.306Z,1.70
2023-01-24T09:06:47.596Z,1.70
2023-01-24T09:11:49.602Z,1.70
2023-01-24T09:16:51.631Z,1.70
2023-01-24T09:21:57.624Z,1.70
2023-01-24T09:26:59.612Z,1.70
2023-01-24T09:32:01.687Z,1.70
2023-01-24T09:37:03.730Z,1.80
2023-01-24T09:42:27.963Z,1.70
2023-01-24T09:47:46.499Z,1.70
2023-01-24T09:52:53.255Z,1.70
2023-01-24T09:58:19.627Z,1.70
2023-01-24T10:03:25.730Z,1.80
2023-01-24T10:08:56.972Z,1.80
2023-01-24T10:14:02.005Z,1.80
2023-01-24T10:19:48.139Z,1.80
2023-01-24T10:25:15.475Z,1.80
2023-01-24T10:30:30.691Z,1.70
2023-01-24T10:35:44.649Z,1.80
2023-01-24T10:40:55.427Z,1.80
2023-01-24T10:46:16.036Z,1.80
2023-01-24T10:51:22.175Z,1.70
2023-01-24T10:56:24.147Z,1.80
2023-01-24T11:01:33.488Z,1.70
2023-01-24T11:06:39.036Z,1.80
2023-01-24T11:11:51.439Z,1.80
2023-01-24T11:16:55.828Z,1.80
2023-01-24T11:22:34.599Z,1.80
2023-01-24T11:27:46.514Z,1.80
2023-01-24T11:33:23.766Z,1.80
2023-01-24T11:38:28.443Z,1.80
2023-01-24T11:44:12.121Z,1.70
2023-01-24T11:49:46.246Z,1.70
2023-01-24T11:55:02.312Z,1.70
2023-01-24T12:00:32.846Z,1.70
2023-01-24T12:05:41.307Z,1.80
2023-01-24T12:11:19.914Z,1.70
2023-01-24T12:16:24.659Z,1.70
2023-01-24T12:21:26.915Z,1.60
2023-01-24T12:26:39.838Z,1.70
2023-01-24T12:32:02.023Z,1.70
2023-01-24T12:37:29.234Z,1.60
2023-01-24T12:43:19.484Z,1.60
2023-01-24T12:48:49.647Z,1.60
2023-01-24T12:54:15.253Z,1.60
2023-01-24T12:59:24.771Z,1.60
2023-01-24T13:04:41.009Z,1.60
2023-01-24T13:10:07.148Z,1.50
2023-01-24T13:15:26.758Z,1.60
2023-01-24T13:20:52.999Z,1.50
2023-01-24T13:26:13.696Z,1.40
2023-01-24T13:31:24.721Z,1.40
2023-01-24T13:36:34.892Z,1.40
2023-01-24T13:41:39.035Z,1.50
2023-01-24T13:46:47.144Z,1.50
2023-01-24T13:51:50.514Z,1.50
2023-01-24T13:57:06.434Z,1.50
2023-01-24T14:02:49.534Z,1.40
2023-01-24T14:07:51.711Z,1.40
2023-01-24T14:12:55.174Z,1.40
2023-01-24T14:17:57.806Z,1.40
2023-01-24T14:23:04.084Z,1.30
2023-01-24T14:28:18.154Z,1.30
2023-01-24T14:33:35.492Z,1.30
2023-01-24T14:38:46.976Z,1.30
2023-01-24T14:43:51.021Z,1.30
2023-01-24T14:48:54.225Z,1.30
2023-01-24T14:53:57.637Z,1.30
2023-01-24T14:59:13.945Z,1.20
2023-01-24T15:04:28.823Z,1.20
2023-01-24T15:09:32.146Z,1.10
2023-01-24T15:14:35.246Z,1.10
2023-01-24T15:19:38.764Z,1.10
2023-01-24T15:24:42.373Z,1.10
2023-01-24T15:29:47.869Z,1.10
2023-01-24T15:34:53.186Z,1.10
2023-01-24T15:40:00.132Z,1.10
2023-01-24T15:45:04.430Z,1.10
2023-01-24T15:50:38.354Z,1.00
2023-01-24T15:55:44.112Z,1.00
2023-01-24T16:00:51.717Z,1.00
2023-01-24T16:05:55.256Z,1.00
2023-01-24T16:10:59.757Z,1.00
2023-01-24T16:16:07.772Z,1.00
2023-01-24T16:21:11.712Z,1.00
2023-01-24T16:26:26.413Z,1.00
2023-01-24T16:31:29.577Z,1.00
2023-01-24T16:36:33.112Z,1.10
2023-01-24T16:41:36.448Z,1.00
2023-01-24T16:46:39.681Z,1.00
2023-01-24T16:51:45.722Z,1.00
2023-01-24T16:56:49.320Z,1.00
2023-01-24T17:01:52.727Z,1.00
2023-01-24T17:07:01.077Z,1.00
2023-01-24T17:12:13.778Z,1.00
2023-01-24T17:17:18.017Z,1.00
2023-01-24T17:22:21.536Z,1.00
2023-01-24T17:27:24.639Z,1.00
2023-01-24T17:32:27.545Z,0.90
2023-01-24T17:37:30.865Z,0.90
2023-01-24T17:42:34.993Z,0.90
2023-01-24T17:47:37.813Z,0.80
2023-01-24T17:52:40.772Z,0.80
2023-01-24T17:57:44.304Z,0.90
2023-01-24T18:02:47.992Z,0.80
2023-01-24T18:07:51.734Z,0.80
2023-01-24T18:12:55.144Z,0.80
2023-01-24T18:17:59.068Z,0.80
2023-01-24T18:23:02.275Z,0.80
2023-01-24T18:28:07.027Z,0.80
2023-01-24T18:33:10.387Z,0.80
2023-01-24T18:38:13.761Z,0.80
2023-01-24T18:43:20.239Z,0.80
2023-01-24T18:48:24.255Z,0.80
2023-01-24T18:53:29.416Z,0.80
2023-01-24T18:58:38.763Z,0.80
2023-01-24T19:03:47.458Z,0.80
2023-01-24T19:09:04.150Z,0.80
2023-01-24T19:14:12.135Z,0.70
2023-01-24T19:19:26.918Z,0.70
2023-01-24T19:24:32.581Z,0.70
2023-01-24T19:29:43.639Z,0.70
2023-01-24T19:34:48.081Z,0.70
2023-01-24T19:39:55.064Z,0.70
2023-01-24T19:45:20.427Z,0.70
2023-01-24T19:50:24.455Z,0.60
2023-01-24T19:55:32.165Z,0.70
2023-01-24T20:00:37.129Z,0.60
2023-01-24T20:05:42.171Z,0.70
2023-01-24T20:10:49.019Z,0.70
2023-01-24T20:15:53.905Z,0.70
2023-01-24T20:20:59.270Z,0.70
2023-01-24T20:26:09.905Z,0.70
2023-01-24T20:31:25.603Z,0.70
2023-01-24T20:36:31.578Z,0.70
2023-01-24T20:41:36.834Z,0.70
2023-01-24T20:46:41.509Z,0.70
2023-01-24T20:51:47.650Z,0.60
2023-01-24T20:56:58.958Z,0.50
2023-01-24T21:02:03.424Z,0.50
2023-01-24T21:07:07.309Z,0.60
2023-01-24T21:12:13.097Z,0.60
2023-01-24T21:17:19.084Z,0.60
2023-01-24T21:22:23.458Z,0.50
2023-01-24T21:27:31.599Z,0.60
2023-01-24T21:32:37.601Z,0.50
2023-01-24T21:37:43.459Z,0.50
2023-01-24T21:42:51.872Z,0.50
2023-01-24T21:48:08.496Z,0.40
2023-01-24T21:53:36.295Z,0.40
2023-01-24T21:58:40.607Z,0.40
2023-01-24T22:03:48.325Z,0.40
2023-01-24T22:08:54.085Z,0.40
2023-01-24T22:13:58.888Z,0.30
2023-01-24T22:19:07.472Z,0.40
2023-01-24T22:24:22.938Z,0.40
2023-01-24T22:29:27.279Z,0.40
2023-01-24T22:34:31.777Z,0.40
2023-01-24T22:39:35.585Z,0.40
2023-01-24T22:44:39.595Z,0.40
2023-01-24T22:49:46.217Z,0.40
2023-01-24T22:54:50.086Z,0.40
2023-01-24T22:59:53.439Z,0.40
2023-01-24T23:04:56.455Z,0.40
2023-01-24T23:09:59.613Z,0.40
2023-01-24T23:15:22.920Z,0.30
2023-01-24T23:20:43.786Z,0.30
2023-01-24T23:25:45.695Z,0.30
2023-01-24T23:30:59.593Z,0.30
2023-01-24T23:36:02.453Z,0.30
2023-01-24T23:41:08.482Z,0.30
2023-01-24T23:46:13.315Z,0.30
2023-01-24T23:51:15.247Z,0.30
2023-01-24T23:56:17.258Z,0.30
